sensor_id;sensor_type;location;lat;lon;timestamp;P1;durP1;ratioP1;P2;durP2;ratioP2
17310;SDS011;8773;43.300;0.394;2022-12-18T00:02:00;10.33;;;9.30;;
17310;SDS011;8773;43.300;0.394;2022-12-18T00:04:28;9.40;;;8.70;;
17310;SDS011;8773;43.300;0.394;2022-12-18T00:06:57;9.70;;;8.63;;
17310;SDS011;8773;43.300;0.394;2022-12-18T00:09:25;9.07;;;8.27;;
17310;SDS011;8773;43.300;0.394;2022-12-18T00:12:05;9.27;;;8.40;;
17310;SDS011;8773;43.300;0.394;2022-12-18T00:14:41;9.10;;;8.33;;
17310;SDS011;8773;43.300;0.394;2022-12-18T00:17:10;9.30;;;8.50;;
17310;SDS011;8773;43.300;0.394;2022-12-18T00:19:38;9.30;;;8.50;;
17310;SDS011;8773;43.300;0.394;2022-12-18T00:22:06;9.13;;;8.30;;
17310;SDS011;8773;43.300;0.394;2022-12-18T00:24:35;8.37;;;7.70;;
17310;SDS011;8773;43.300;0.394;2022-12-18T00:27:02;8.50;;;7.80;;
17310;SDS011;8773;43.300;0.394;2022-12-18T00:29:31;8.47;;;7.70;;
17310;SDS011;8773;43.300;0.394;2022-12-18T00:31:59;9.03;;;7.87;;
17310;SDS011;8773;43.300;0.394;2022-12-18T00:34:28;8.73;;;7.93;;
17310;SDS011;8773;43.300;0.394;2022-12-18T00:36:56;9.10;;;8.40;;
17310;SDS011;8773;43.300;0.394;2022-12-18T00:39:24;9.83;;;8.93;;
17310;SDS011;8773;43.300;0.394;2022-12-18T00:41:52;10.10;;;9.20;;
17310;SDS011;8773;43.300;0.394;2022-12-18T00:44:38;9.13;;;8.40;;
17310;SDS011;8773;43.300;0.394;2022-12-18T00:47:06;10.07;;;9.17;;
17310;SDS011;8773;43.300;0.394;2022-12-18T00:49:36;10.17;;;9.27;;
17310;SDS011;8773;43.300;0.394;2022-12-18T00:52:04;9.93;;;9.03;;
17310;SDS011;8773;43.300;0.394;2022-12-18T00:54:32;10.17;;;9.27;;
17310;SDS011;8773;43.300;0.394;2022-12-18T00:57:00;9.83;;;8.83;;
17310;SDS011;8773;43.300;0.394;2022-12-18T00:59:29;9.67;;;8.87;;
17310;SDS011;8773;43.300;0.394;2022-12-18T01:01:57;8.67;;;7.97;;
17310;SDS011;8773;43.300;0.394;2022-12-18T01:04:25;8.40;;;7.77;;
17310;SDS011;8773;43.300;0.394;2022-12-18T01:06:55;8.10;;;7.30;;
17310;SDS011;8773;43.300;0.394;2022-12-18T01:09:23;7.67;;;6.90;;
17310;SDS011;8773;43.300;0.394;2022-12-18T01:11:51;7.97;;;7.17;;
17310;SDS011;8773;43.300;0.394;2022-12-18T01:14:19;7.37;;;6.73;;
17310;SDS011;8773;43.300;0.394;2022-12-18T01:16:48;7.63;;;6.90;;
17310;SDS011;8773;43.300;0.394;2022-12-18T01:19:16;7.73;;;6.93;;
17310;SDS011;8773;43.300;0.394;2022-12-18T01:21:44;6.83;;;6.27;;
17310;SDS011;8773;43.300;0.394;2022-12-18T01:24:13;7.17;;;6.63;;
17310;SDS011;8773;43.300;0.394;2022-12-18T01:26:42;7.03;;;6.53;;
17310;SDS011;8773;43.300;0.394;2022-12-18T01:29:10;7.17;;;6.60;;
17310;SDS011;8773;43.300;0.394;2022-12-18T01:31:38;6.00;;;5.40;;
17310;SDS011;8773;43.300;0.394;2022-12-18T01:34:07;6.30;;;5.80;;
17310;SDS011;8773;43.300;0.394;2022-12-18T01:36:35;6.83;;;6.13;;
17310;SDS011;8773;43.300;0.394;2022-12-18T01:39:05;5.90;;;5.47;;
17310;SDS011;8773;43.300;0.394;2022-12-18T01:41:37;6.67;;;5.97;;
17310;SDS011;8773;43.300;0.394;2022-12-18T01:44:53;5.83;;;5.43;;
17310;SDS011;8773;43.300;0.394;2022-12-18T01:47:28;6.23;;;5.73;;
17310;SDS011;8773;43.300;0.394;2022-12-18T01:50:03;6.37;;;5.87;;
17310;SDS011;8773;43.300;0.394;2022-12-18T01:52:35;6.23;;;5.73;;
17310;SDS011;8773;43.300;0.394;2022-12-18T01:55:09;6.80;;;6.23;;
17310;SDS011;8773;43.300;0.394;2022-12-18T01:57:39;7.00;;;6.40;;
17310;SDS011;8773;43.300;0.394;2022-12-18T02:00:10;6.90;;;6.30;;
17310;SDS011;8773;43.300;0.394;2022-12-18T02:02:40;6.93;;;6.33;;
17310;SDS011;8773;43.300;0.394;2022-12-18T02:05:10;6.27;;;5.67;;
17310;SDS011;8773;43.300;0.394;2022-12-18T02:07:42;6.70;;;6.20;;
17310;SDS011;8773;43.300;0.394;2022-12-18T02:10:19;7.20;;;6.60;;
17310;SDS011;8773;43.300;0.394;2022-12-18T02:12:57;7.13;;;6.43;;
17310;SDS011;8773;43.300;0.394;2022-12-18T02:15:36;7.13;;;6.60;;
17310;SDS011;8773;43.300;0.394;2022-12-18T02:18:08;6.80;;;6.10;;
17310;SDS011;8773;43.300;0.394;2022-12-18T02:20:42;6.63;;;6.00;;
17310;SDS011;8773;43.300;0.394;2022-12-18T02:23:17;6.80;;;6.20;;
17310;SDS011;8773;43.300;0.394;2022-12-18T02:26:02;5.77;;;5.37;;
17310;SDS011;8773;43.300;0.394;2022-12-18T02:28:40;5.83;;;5.33;;
17310;SDS011;8773;43.300;0.394;2022-12-18T02:31:11;6.43;;;5.93;;
17310;SDS011;8773;43.300;0.394;2022-12-18T02:33:44;5.57;;;5.07;;
17310;SDS011;8773;43.300;0.394;2022-12-18T02:36:13;5.30;;;4.90;;
17310;SDS011;8773;43.300;0.394;2022-12-18T02:38:44;5.43;;;4.93;;
17310;SDS011;8773;43.300;0.394;2022-12-18T02:41:15;5.73;;;5.23;;
17310;SDS011;8773;43.300;0.394;2022-12-18T02:43:48;5.03;;;4.63;;
17310;SDS011;8773;43.300;0.394;2022-12-18T02:46:25;4.57;;;4.23;;
17310;SDS011;8773;43.300;0.394;2022-12-18T02:49:00;4.87;;;4.47;;
17310;SDS011;8773;43.300;0.394;2022-12-18T02:51:35;4.17;;;3.97;;
17310;SDS011;8773;43.300;0.394;2022-12-18T02:54:13;5.20;;;4.90;;
17310;SDS011;8773;43.300;0.394;2022-12-18T02:56:50;4.50;;;4.10;;
17310;SDS011;8773;43.300;0.394;2022-12-18T02:59:23;4.80;;;4.50;;
17310;SDS011;8773;43.300;0.394;2022-12-18T03:01:58;5.20;;;4.70;;
17310;SDS011;8773;43.300;0.394;2022-12-18T03:04:32;4.33;;;4.03;;
17310;SDS011;8773;43.300;0.394;2022-12-18T03:07:11;4.13;;;3.90;;
17310;SDS011;8773;43.300;0.394;2022-12-18T03:09:47;4.03;;;3.73;;
17310;SDS011;8773;43.300;0.394;2022-12-18T03:12:20;4.27;;;3.97;;
17310;SDS011;8773;43.300;0.394;2022-12-18T03:14:56;4.20;;;3.77;;
17310;SDS011;8773;43.300;0.394;2022-12-18T03:17:30;4.10;;;3.70;;
17310;SDS011;8773;43.300;0.394;2022-12-18T03:20:00;3.93;;;3.63;;
17310;SDS011;8773;43.300;0.394;2022-12-18T03:22:33;4.50;;;4.10;;
17310;SDS011;8773;43.300;0.394;2022-12-18T03:25:05;3.87;;;3.67;;
17310;SDS011;8773;43.300;0.394;2022-12-18T03:27:40;4.63;;;4.27;;
17310;SDS011;8773;43.300;0.394;2022-12-18T03:30:14;4.60;;;4.20;;
17310;SDS011;8773;43.300;0.394;2022-12-18T03:32:44;4.23;;;3.93;;
17310;SDS011;8773;43.300;0.394;2022-12-18T03:35:18;4.90;;;4.50;;
17310;SDS011;8773;43.300;0.394;2022-12-18T03:37:50;4.70;;;4.40;;
17310;SDS011;8773;43.300;0.394;2022-12-18T03:40:20;4.37;;;4.17;;
17310;SDS011;8773;43.300;0.394;2022-12-18T03:42:56;4.20;;;3.90;;
17310;SDS011;8773;43.300;0.394;2022-12-18T03:45:31;4.67;;;4.33;;
17310;SDS011;8773;43.300;0.394;2022-12-18T03:48:02;4.57;;;4.10;;
17310;SDS011;8773;43.300;0.394;2022-12-18T03:50:36;4.40;;;4.10;;
17310;SDS011;8773;43.300;0.394;2022-12-18T03:53:15;4.63;;;4.33;;
17310;SDS011;8773;43.300;0.394;2022-12-18T03:55:50;4.30;;;4.00;;
17310;SDS011;8773;43.300;0.394;2022-12-18T03:58:22;4.30;;;4.00;;
17310;SDS011;8773;43.300;0.394;2022-12-18T04:00:52;4.60;;;4.30;;
17310;SDS011;8773;43.300;0.394;2022-12-18T04:03:23;4.80;;;4.40;;
17310;SDS011;8773;43.300;0.394;2022-12-18T04:05:54;4.80;;;4.37;;
17310;SDS011;8773;43.300;0.394;2022-12-18T04:08:23;4.70;;;4.30;;
17310;SDS011;8773;43.300;0.394;2022-12-18T04:10:52;4.97;;;4.60;;
17310;SDS011;8773;43.300;0.394;2022-12-18T04:13:27;4.67;;;4.30;;
17310;SDS011;8773;43.300;0.394;2022-12-18T04:15:57;4.37;;;4.07;;
17310;SDS011;8773;43.300;0.394;2022-12-18T04:18:25;3.87;;;3.63;;
17310;SDS011;8773;43.300;0.394;2022-12-18T04:20:54;4.33;;;4.10;;
17310;SDS011;8773;43.300;0.394;2022-12-18T04:23:22;4.10;;;3.80;;
17310;SDS011;8773;43.300;0.394;2022-12-18T04:25:50;3.90;;;3.60;;
17310;SDS011;8773;43.300;0.394;2022-12-18T04:28:18;3.87;;;3.63;;
17310;SDS011;8773;43.300;0.394;2022-12-18T04:30:48;4.03;;;3.73;;
17310;SDS011;8773;43.300;0.394;2022-12-18T04:33:16;4.43;;;3.50;;
17310;SDS011;8773;43.300;0.394;2022-12-18T04:35:44;3.60;;;3.30;;
17310;SDS011;8773;43.300;0.394;2022-12-18T04:38:13;3.40;;;3.20;;
17310;SDS011;8773;43.300;0.394;2022-12-18T04:40:41;3.90;;;3.60;;
17310;SDS011;8773;43.300;0.394;2022-12-18T04:43:09;3.70;;;3.40;;
17310;SDS011;8773;43.300;0.394;2022-12-18T04:45:38;3.40;;;3.20;;
17310;SDS011;8773;43.300;0.394;2022-12-18T04:48:07;3.70;;;3.50;;
17310;SDS011;8773;43.300;0.394;2022-12-18T04:50:36;3.67;;;3.47;;
17310;SDS011;8773;43.300;0.394;2022-12-18T04:53:04;3.50;;;3.20;;
17310;SDS011;8773;43.300;0.394;2022-12-18T04:55:32;4.30;;;3.70;;
17310;SDS011;8773;43.300;0.394;2022-12-18T04:58:00;3.67;;;3.37;;
17310;SDS011;8773;43.300;0.394;2022-12-18T05:00:28;3.80;;;3.27;;
17310;SDS011;8773;43.300;0.394;2022-12-18T05:02:56;3.17;;;2.97;;
17310;SDS011;8773;43.300;0.394;2022-12-18T05:05:26;3.53;;;3.30;;
17310;SDS011;8773;43.300;0.394;2022-12-18T05:07:54;3.37;;;3.17;;
17310;SDS011;8773;43.300;0.394;2022-12-18T05:10:22;3.80;;;3.50;;
17310;SDS011;8773;43.300;0.394;2022-12-18T05:12:51;3.77;;;3.50;;
17310;SDS011;8773;43.300;0.394;2022-12-18T05:15:28;3.63;;;3.33;;
17310;SDS011;8773;43.300;0.394;2022-12-18T05:17:57;3.90;;;3.40;;
17310;SDS011;8773;43.300;0.394;2022-12-18T05:20:28;3.50;;;3.30;;
17310;SDS011;8773;43.300;0.394;2022-12-18T05:22:56;3.70;;;3.40;;
17310;SDS011;8773;43.300;0.394;2022-12-18T05:25:24;3.73;;;3.43;;
17310;SDS011;8773;43.300;0.394;2022-12-18T05:27:53;3.67;;;3.40;;
17310;SDS011;8773;43.300;0.394;2022-12-18T05:30:20;3.63;;;3.33;;
17310;SDS011;8773;43.300;0.394;2022-12-18T05:32:48;3.13;;;2.97;;
17310;SDS011;8773;43.300;0.394;2022-12-18T05:35:17;3.70;;;3.43;;
17310;SDS011;8773;43.300;0.394;2022-12-18T05:37:46;3.40;;;3.20;;
17310;SDS011;8773;43.300;0.394;2022-12-18T05:40:14;3.07;;;2.87;;
17310;SDS011;8773;43.300;0.394;2022-12-18T05:42:42;4.00;;;2.70;;
17310;SDS011;8773;43.300;0.394;2022-12-18T05:45:10;3.03;;;2.83;;
17310;SDS011;8773;43.300;0.394;2022-12-18T05:47:38;4.97;;;2.80;;
17310;SDS011;8773;43.300;0.394;2022-12-18T05:50:07;2.90;;;2.70;;
17310;SDS011;8773;43.300;0.394;2022-12-18T05:52:35;2.80;;;2.70;;
17310;SDS011;8773;43.300;0.394;2022-12-18T05:55:05;2.87;;;2.67;;
17310;SDS011;8773;43.300;0.394;2022-12-18T05:57:33;2.70;;;2.50;;
17310;SDS011;8773;43.300;0.394;2022-12-18T06:00:02;2.70;;;2.60;;
17310;SDS011;8773;43.300;0.394;2022-12-18T06:02:31;2.03;;;1.93;;
17310;SDS011;8773;43.300;0.394;2022-12-18T06:04:59;2.43;;;2.30;;
17310;SDS011;8773;43.300;0.394;2022-12-18T06:07:27;2.50;;;2.30;;
17310;SDS011;8773;43.300;0.394;2022-12-18T06:09:55;2.40;;;2.30;;
17310;SDS011;8773;43.300;0.394;2022-12-18T06:12:25;2.53;;;2.43;;
17310;SDS011;8773;43.300;0.394;2022-12-18T06:14:53;2.70;;;2.47;;
17310;SDS011;8773;43.300;0.394;2022-12-18T06:17:23;2.70;;;2.50;;
17310;SDS011;8773;43.300;0.394;2022-12-18T06:19:55;3.10;;;2.80;;
17310;SDS011;8773;43.300;0.394;2022-12-18T06:22:23;2.80;;;2.60;;
17310;SDS011;8773;43.300;0.394;2022-12-18T06:24:52;2.90;;;2.60;;
17310;SDS011;8773;43.300;0.394;2022-12-18T06:27:20;2.47;;;2.27;;
17310;SDS011;8773;43.300;0.394;2022-12-18T06:29:49;2.87;;;2.77;;
17310;SDS011;8773;43.300;0.394;2022-12-18T06:32:17;3.97;;;2.90;;
17310;SDS011;8773;43.300;0.394;2022-12-18T06:34:46;3.37;;;3.07;;
17310;SDS011;8773;43.300;0.394;2022-12-18T06:37:14;2.80;;;2.50;;
17310;SDS011;8773;43.300;0.394;2022-12-18T06:39:42;2.83;;;2.63;;
17310;SDS011;8773;43.300;0.394;2022-12-18T06:42:10;2.80;;;2.60;;
17310;SDS011;8773;43.300;0.394;2022-12-18T06:44:38;2.67;;;2.57;;
17310;SDS011;8773;43.300;0.394;2022-12-18T06:47:07;2.73;;;2.53;;
17310;SDS011;8773;43.300;0.394;2022-12-18T06:49:36;2.73;;;2.53;;
17310;SDS011;8773;43.300;0.394;2022-12-18T06:52:04;2.80;;;2.60;;
17310;SDS011;8773;43.300;0.394;2022-12-18T06:54:32;3.37;;;2.83;;
17310;SDS011;8773;43.300;0.394;2022-12-18T06:57:00;3.30;;;3.13;;
17310;SDS011;8773;43.300;0.394;2022-12-18T06:59:31;3.30;;;3.10;;
17310;SDS011;8773;43.300;0.394;2022-12-18T07:01:59;3.13;;;2.80;;
17310;SDS011;8773;43.300;0.394;2022-12-18T07:04:29;3.40;;;3.10;;
17310;SDS011;8773;43.300;0.394;2022-12-18T07:06:57;3.20;;;2.97;;
17310;SDS011;8773;43.300;0.394;2022-12-18T07:09:25;2.80;;;2.60;;
17310;SDS011;8773;43.300;0.394;2022-12-18T07:11:56;3.23;;;2.93;;
17310;SDS011;8773;43.300;0.394;2022-12-18T07:14:24;3.20;;;3.00;;
17310;SDS011;8773;43.300;0.394;2022-12-18T07:16:53;3.07;;;2.87;;
17310;SDS011;8773;43.300;0.394;2022-12-18T07:19:22;3.97;;;3.20;;
17310;SDS011;8773;43.300;0.394;2022-12-18T07:21:51;4.33;;;4.00;;
17310;SDS011;8773;43.300;0.394;2022-12-18T07:24:19;4.67;;;4.00;;
17310;SDS011;8773;43.300;0.394;2022-12-18T07:26:47;3.63;;;3.43;;
17310;SDS011;8773;43.300;0.394;2022-12-18T07:29:15;4.20;;;3.90;;
17310;SDS011;8773;43.300;0.394;2022-12-18T07:31:43;4.50;;;4.20;;
17310;SDS011;8773;43.300;0.394;2022-12-18T07:34:12;4.43;;;4.13;;
17310;SDS011;8773;43.300;0.394;2022-12-18T07:36:41;4.10;;;3.80;;
17310;SDS011;8773;43.300;0.394;2022-12-18T07:39:12;4.07;;;3.77;;
17310;SDS011;8773;43.300;0.394;2022-12-18T07:41:40;3.67;;;3.47;;
17310;SDS011;8773;43.300;0.394;2022-12-18T07:44:13;3.20;;;3.10;;
17310;SDS011;8773;43.300;0.394;2022-12-18T07:46:42;3.10;;;3.00;;
17310;SDS011;8773;43.300;0.394;2022-12-18T07:49:10;4.37;;;3.97;;
17310;SDS011;8773;43.300;0.394;2022-12-18T07:51:38;3.33;;;3.13;;
17310;SDS011;8773;43.300;0.394;2022-12-18T07:54:06;4.10;;;3.80;;
17310;SDS011;8773;43.300;0.394;2022-12-18T07:56:35;5.90;;;5.30;;
17310;SDS011;8773;43.300;0.394;2022-12-18T07:59:04;4.37;;;3.83;;
17310;SDS011;8773;43.300;0.394;2022-12-18T08:01:32;4.37;;;4.07;;
17310;SDS011;8773;43.300;0.394;2022-12-18T08:04:01;3.87;;;3.60;;
17310;SDS011;8773;43.300;0.394;2022-12-18T08:06:29;5.60;;;5.30;;
17310;SDS011;8773;43.300;0.394;2022-12-18T08:08:57;3.87;;;3.40;;
17310;SDS011;8773;43.300;0.394;2022-12-18T08:11:26;3.90;;;3.60;;
17310;SDS011;8773;43.300;0.394;2022-12-18T08:13:57;3.40;;;3.20;;
17310;SDS011;8773;43.300;0.394;2022-12-18T08:16:25;3.93;;;3.60;;
17310;SDS011;8773;43.300;0.394;2022-12-18T08:18:54;3.17;;;2.97;;
17310;SDS011;8773;43.300;0.394;2022-12-18T08:21:23;3.33;;;3.13;;
17310;SDS011;8773;43.300;0.394;2022-12-18T08:23:53;3.80;;;3.40;;
17310;SDS011;8773;43.300;0.394;2022-12-18T08:26:23;4.30;;;3.97;;
17310;SDS011;8773;43.300;0.394;2022-12-18T08:28:53;5.13;;;4.50;;
17310;SDS011;8773;43.300;0.394;2022-12-18T08:31:22;5.10;;;4.70;;
17310;SDS011;8773;43.300;0.394;2022-12-18T08:33:52;5.23;;;4.40;;
17310;SDS011;8773;43.300;0.394;2022-12-18T08:36:20;4.40;;;4.10;;
17310;SDS011;8773;43.300;0.394;2022-12-18T08:38:50;4.37;;;4.07;;
17310;SDS011;8773;43.300;0.394;2022-12-18T08:41:19;4.60;;;4.30;;
17310;SDS011;8773;43.300;0.394;2022-12-18T08:43:47;4.80;;;4.40;;
17310;SDS011;8773;43.300;0.394;2022-12-18T08:46:34;4.63;;;4.27;;
17310;SDS011;8773;43.300;0.394;2022-12-18T08:49:05;5.03;;;4.73;;
17310;SDS011;8773;43.300;0.394;2022-12-18T08:51:34;4.90;;;4.50;;
17310;SDS011;8773;43.300;0.394;2022-12-18T08:54:03;4.93;;;4.50;;
17310;SDS011;8773;43.300;0.394;2022-12-18T08:56:32;4.67;;;4.37;;
17310;SDS011;8773;43.300;0.394;2022-12-18T08:59:02;4.07;;;3.80;;
17310;SDS011;8773;43.300;0.394;2022-12-18T09:01:31;3.60;;;3.40;;
17310;SDS011;8773;43.300;0.394;2022-12-18T09:04:02;5.27;;;3.70;;
17310;SDS011;8773;43.300;0.394;2022-12-18T09:06:33;3.70;;;3.40;;
17310;SDS011;8773;43.300;0.394;2022-12-18T09:09:02;5.33;;;4.87;;
17310;SDS011;8773;43.300;0.394;2022-12-18T09:11:31;5.10;;;4.70;;
17310;SDS011;8773;43.300;0.394;2022-12-18T09:14:00;4.87;;;4.57;;
17310;SDS011;8773;43.300;0.394;2022-12-18T09:16:30;5.03;;;4.63;;
17310;SDS011;8773;43.300;0.394;2022-12-18T09:18:59;6.63;;;6.03;;
17310;SDS011;8773;43.300;0.394;2022-12-18T09:21:30;7.80;;;7.00;;
17310;SDS011;8773;43.300;0.394;2022-12-18T09:24:02;10.80;;;9.33;;
17310;SDS011;8773;43.300;0.394;2022-12-18T09:26:37;7.20;;;6.60;;
17310;SDS011;8773;43.300;0.394;2022-12-18T09:29:05;5.13;;;4.83;;
17310;SDS011;8773;43.300;0.394;2022-12-18T09:31:37;4.50;;;4.20;;
17310;SDS011;8773;43.300;0.394;2022-12-18T09:34:06;22.37;;;10.50;;
17310;SDS011;8773;43.300;0.394;2022-12-18T09:36:36;9.23;;;5.70;;
17310;SDS011;8773;43.300;0.394;2022-12-18T09:39:04;5.10;;;4.60;;
17310;SDS011;8773;43.300;0.394;2022-12-18T09:44:22;3.73;;;3.53;;
17310;SDS011;8773;43.300;0.394;2022-12-18T09:49:39;3.73;;;3.50;;
17310;SDS011;8773;43.300;0.394;2022-12-18T09:52:12;3.83;;;3.57;;
17310;SDS011;8773;43.300;0.394;2022-12-18T09:54:47;3.67;;;3.37;;
17310;SDS011;8773;43.300;0.394;2022-12-18T09:57:20;4.00;;;3.70;;
17310;SDS011;8773;43.300;0.394;2022-12-18T09:59:52;4.03;;;3.83;;
17310;SDS011;8773;43.300;0.394;2022-12-18T10:02:25;5.13;;;4.57;;
17310;SDS011;8773;43.300;0.394;2022-12-18T10:05:03;4.13;;;3.83;;
17310;SDS011;8773;43.300;0.394;2022-12-18T10:07:47;4.83;;;4.50;;
17310;SDS011;8773;43.300;0.394;2022-12-18T10:10:24;4.77;;;4.40;;
17310;SDS011;8773;43.300;0.394;2022-12-18T10:13:01;4.93;;;4.50;;
17310;SDS011;8773;43.300;0.394;2022-12-18T10:15:36;4.40;;;4.10;;
17310;SDS011;8773;43.300;0.394;2022-12-18T10:18:16;4.77;;;4.47;;
17310;SDS011;8773;43.300;0.394;2022-12-18T10:20:52;5.13;;;4.30;;
17310;SDS011;8773;43.300;0.394;2022-12-18T10:23:26;4.83;;;4.53;;
17310;SDS011;8773;43.300;0.394;2022-12-18T10:25:59;4.33;;;4.00;;
17310;SDS011;8773;43.300;0.394;2022-12-18T10:28:31;4.90;;;4.30;;
17310;SDS011;8773;43.300;0.394;2022-12-18T10:31:05;5.03;;;4.70;;
17310;SDS011;8773;43.300;0.394;2022-12-18T10:33:34;4.60;;;4.30;;
17310;SDS011;8773;43.300;0.394;2022-12-18T10:36:03;4.40;;;4.10;;
17310;SDS011;8773;43.300;0.394;2022-12-18T10:38:34;5.77;;;4.50;;
17310;SDS011;8773;43.300;0.394;2022-12-18T10:41:03;5.23;;;4.83;;
17310;SDS011;8773;43.300;0.394;2022-12-18T10:43:38;5.03;;;4.67;;
17310;SDS011;8773;43.300;0.394;2022-12-18T10:46:14;5.40;;;5.00;;
17310;SDS011;8773;43.300;0.394;2022-12-18T10:48:49;6.07;;;5.57;;
17310;SDS011;8773;43.300;0.394;2022-12-18T10:51:20;6.33;;;5.83;;
17310;SDS011;8773;43.300;0.394;2022-12-18T10:53:56;7.70;;;6.90;;
17310;SDS011;8773;43.300;0.394;2022-12-18T10:56:28;5.97;;;5.57;;
17310;SDS011;8773;43.300;0.394;2022-12-18T10:58:59;6.53;;;6.03;;
17310;SDS011;8773;43.300;0.394;2022-12-18T11:01:32;5.83;;;5.33;;
17310;SDS011;8773;43.300;0.394;2022-12-18T11:04:16;5.13;;;4.73;;
17310;SDS011;8773;43.300;0.394;2022-12-18T11:06:56;4.63;;;4.23;;
17310;SDS011;8773;43.300;0.394;2022-12-18T11:09:28;4.80;;;4.40;;
17310;SDS011;8773;43.300;0.394;2022-12-18T11:11:58;5.07;;;4.70;;
17310;SDS011;8773;43.300;0.394;2022-12-18T11:14:29;5.40;;;5.03;;
17310;SDS011;8773;43.300;0.394;2022-12-18T11:17:00;4.43;;;4.13;;
17310;SDS011;8773;43.300;0.394;2022-12-18T11:19:52;4.07;;;3.73;;
17310;SDS011;8773;43.300;0.394;2022-12-18T11:22:23;4.27;;;3.97;;
17310;SDS011;8773;43.300;0.394;2022-12-18T11:24:56;3.70;;;3.40;;
17310;SDS011;8773;43.300;0.394;2022-12-18T11:27:47;3.30;;;3.00;;
17310;SDS011;8773;43.300;0.394;2022-12-18T11:30:21;3.50;;;3.30;;
17310;SDS011;8773;43.300;0.394;2022-12-18T11:32:50;3.67;;;3.33;;
17310;SDS011;8773;43.300;0.394;2022-12-18T11:35:25;3.53;;;3.27;;
17310;SDS011;8773;43.300;0.394;2022-12-18T11:38:05;4.20;;;3.80;;
17310;SDS011;8773;43.300;0.394;2022-12-18T11:40:42;4.40;;;4.10;;
17310;SDS011;8773;43.300;0.394;2022-12-18T11:43:14;3.73;;;3.50;;
17310;SDS011;8773;43.300;0.394;2022-12-18T11:45:49;3.33;;;3.17;;
17310;SDS011;8773;43.300;0.394;2022-12-18T11:48:21;3.80;;;3.50;;
17310;SDS011;8773;43.300;0.394;2022-12-18T11:50:53;3.80;;;3.50;;
17310;SDS011;8773;43.300;0.394;2022-12-18T11:53:23;4.40;;;4.10;;
17310;SDS011;8773;43.300;0.394;2022-12-18T11:55:58;4.50;;;4.17;;
17310;SDS011;8773;43.300;0.394;2022-12-18T11:58:42;3.80;;;3.50;;
17310;SDS011;8773;43.300;0.394;2022-12-18T12:01:22;3.43;;;3.23;;
17310;SDS011;8773;43.300;0.394;2022-12-18T12:04:19;3.93;;;3.53;;
17310;SDS011;8773;43.300;0.394;2022-12-18T12:07:09;4.03;;;3.83;;
17310;SDS011;8773;43.300;0.394;2022-12-18T12:09:50;3.50;;;3.30;;
17310;SDS011;8773;43.300;0.394;2022-12-18T12:12:32;3.57;;;3.27;;
17310;SDS011;8773;43.300;0.394;2022-12-18T12:15:17;3.50;;;3.30;;
17310;SDS011;8773;43.300;0.394;2022-12-18T12:17:54;3.03;;;2.93;;
17310;SDS011;8773;43.300;0.394;2022-12-18T12:20:39;2.73;;;2.53;;
17310;SDS011;8773;43.300;0.394;2022-12-18T12:23:15;2.70;;;2.60;;
17310;SDS011;8773;43.300;0.394;2022-12-18T12:25:56;2.80;;;2.70;;
17310;SDS011;8773;43.300;0.394;2022-12-18T12:28:32;3.00;;;2.80;;
17310;SDS011;8773;43.300;0.394;2022-12-18T12:31:11;2.97;;;2.77;;
17310;SDS011;8773;43.300;0.394;2022-12-18T12:33:49;2.87;;;2.50;;
17310;SDS011;8773;43.300;0.394;2022-12-18T12:36:26;3.00;;;2.90;;
17310;SDS011;8773;43.300;0.394;2022-12-18T12:39:05;3.63;;;3.43;;
17310;SDS011;8773;43.300;0.394;2022-12-18T12:41:36;3.17;;;2.97;;
17310;SDS011;8773;43.300;0.394;2022-12-18T12:44:25;3.30;;;3.00;;
17310;SDS011;8773;43.300;0.394;2022-12-18T12:47:00;2.87;;;2.67;;
17310;SDS011;8773;43.300;0.394;2022-12-18T12:49:34;2.17;;;2.07;;
17310;SDS011;8773;43.300;0.394;2022-12-18T12:52:07;1.20;;;1.20;;
17310;SDS011;8773;43.300;0.394;2022-12-18T12:54:41;2.00;;;1.90;;
17310;SDS011;8773;43.300;0.394;2022-12-18T12:57:12;1.50;;;1.50;;
17310;SDS011;8773;43.300;0.394;2022-12-18T12:59:47;1.73;;;1.67;;
17310;SDS011;8773;43.300;0.394;2022-12-18T13:02:27;1.73;;;1.63;;
17310;SDS011;8773;43.300;0.394;2022-12-18T13:05:00;1.20;;;1.20;;
17310;SDS011;8773;43.300;0.394;2022-12-18T13:07:32;1.00;;;1.00;;
17310;SDS011;8773;43.300;0.394;2022-12-18T13:10:13;1.20;;;1.20;;
17310;SDS011;8773;43.300;0.394;2022-12-18T13:12:53;1.20;;;1.20;;
17310;SDS011;8773;43.300;0.394;2022-12-18T13:15:36;1.50;;;1.50;;
17310;SDS011;8773;43.300;0.394;2022-12-18T13:21:01;2.20;;;2.10;;
17310;SDS011;8773;43.300;0.394;2022-12-18T13:23:36;2.30;;;2.20;;
17310;SDS011;8773;43.300;0.394;2022-12-18T13:28:58;1.57;;;1.47;;
17310;SDS011;8773;43.300;0.394;2022-12-18T13:34:42;1.30;;;1.30;;
17310;SDS011;8773;43.300;0.394;2022-12-18T13:43:30;1.30;;;1.30;;
17310;SDS011;8773;43.300;0.394;2022-12-18T13:46:02;1.40;;;1.30;;
17310;SDS011;8773;43.300;0.394;2022-12-18T13:48:35;2.30;;;2.20;;
17310;SDS011;8773;43.300;0.394;2022-12-18T13:51:09;2.50;;;2.40;;
17310;SDS011;8773;43.300;0.394;2022-12-18T13:53:39;1.67;;;1.67;;
17310;SDS011;8773;43.300;0.394;2022-12-18T13:56:15;2.53;;;1.60;;
17310;SDS011;8773;43.300;0.394;2022-12-18T13:58:44;1.60;;;1.50;;
17310;SDS011;8773;43.300;0.394;2022-12-18T14:01:21;1.63;;;1.60;;
17310;SDS011;8773;43.300;0.394;2022-12-18T14:03:51;1.23;;;1.23;;
17310;SDS011;8773;43.300;0.394;2022-12-18T14:06:37;1.83;;;1.73;;
17310;SDS011;8773;43.300;0.394;2022-12-18T14:09:05;1.30;;;1.30;;
17310;SDS011;8773;43.300;0.394;2022-12-18T14:11:45;1.20;;;1.20;;
17310;SDS011;8773;43.300;0.394;2022-12-18T14:14:15;1.50;;;1.40;;
17310;SDS011;8773;43.300;0.394;2022-12-18T14:16:45;1.47;;;1.47;;
17310;SDS011;8773;43.300;0.394;2022-12-18T14:19:15;1.57;;;1.50;;
17310;SDS011;8773;43.300;0.394;2022-12-18T14:21:47;1.33;;;1.33;;
17310;SDS011;8773;43.300;0.394;2022-12-18T14:24:18;1.60;;;1.50;;
17310;SDS011;8773;43.300;0.394;2022-12-18T14:26:47;1.50;;;1.50;;
17310;SDS011;8773;43.300;0.394;2022-12-18T14:29:19;1.60;;;1.50;;
17310;SDS011;8773;43.300;0.394;2022-12-18T14:32:05;1.70;;;1.60;;
17310;SDS011;8773;43.300;0.394;2022-12-18T14:34:43;1.80;;;1.70;;
17310;SDS011;8773;43.300;0.394;2022-12-18T14:37:14;1.90;;;1.80;;
17310;SDS011;8773;43.300;0.394;2022-12-18T14:39:53;2.80;;;2.20;;
17310;SDS011;8773;43.300;0.394;2022-12-18T14:42:23;2.10;;;2.00;;
17310;SDS011;8773;43.300;0.394;2022-12-18T14:48:08;2.10;;;2.00;;
17310;SDS011;8773;43.300;0.394;2022-12-18T14:51:00;2.17;;;2.07;;
17310;SDS011;8773;43.300;0.394;2022-12-18T14:53:33;2.50;;;2.30;;
17310;SDS011;8773;43.300;0.394;2022-12-18T14:56:12;2.40;;;2.20;;
17310;SDS011;8773;43.300;0.394;2022-12-18T14:58:46;2.30;;;2.10;;
17310;SDS011;8773;43.300;0.394;2022-12-18T15:01:19;2.13;;;2.03;;
17310;SDS011;8773;43.300;0.394;2022-12-18T15:03:51;2.40;;;2.30;;
17310;SDS011;8773;43.300;0.394;2022-12-18T15:06:30;2.43;;;2.20;;
17310;SDS011;8773;43.300;0.394;2022-12-18T15:09:02;2.47;;;2.27;;
17310;SDS011;8773;43.300;0.394;2022-12-18T15:11:34;2.30;;;2.20;;
17310;SDS011;8773;43.300;0.394;2022-12-18T15:14:23;2.70;;;2.53;;
17310;SDS011;8773;43.300;0.394;2022-12-18T15:16:58;2.67;;;2.47;;
17310;SDS011;8773;43.300;0.394;2022-12-18T15:19:33;2.00;;;1.90;;
17310;SDS011;8773;43.300;0.394;2022-12-18T15:22:11;2.73;;;2.53;;
17310;SDS011;8773;43.300;0.394;2022-12-18T15:24:51;2.80;;;2.67;;
17310;SDS011;8773;43.300;0.394;2022-12-18T15:27:22;5.20;;;2.70;;
17310;SDS011;8773;43.300;0.394;2022-12-18T15:30:02;2.83;;;2.73;;
17310;SDS011;8773;43.300;0.394;2022-12-18T15:32:47;2.90;;;2.70;;
17310;SDS011;8773;43.300;0.394;2022-12-18T15:35:16;2.80;;;2.40;;
17310;SDS011;8773;43.300;0.394;2022-12-18T15:37:46;2.70;;;2.60;;
17310;SDS011;8773;43.300;0.394;2022-12-18T15:40:20;4.07;;;3.80;;
17310;SDS011;8773;43.300;0.394;2022-12-18T15:42:51;3.47;;;3.20;;
17310;SDS011;8773;43.300;0.394;2022-12-18T15:45:39;3.50;;;3.20;;
17310;SDS011;8773;43.300;0.394;2022-12-18T15:48:15;3.30;;;3.03;;
17310;SDS011;8773;43.300;0.394;2022-12-18T15:50:48;3.23;;;3.03;;
17310;SDS011;8773;43.300;0.394;2022-12-18T15:53:17;3.30;;;3.07;;
17310;SDS011;8773;43.300;0.394;2022-12-18T15:55:47;3.37;;;3.17;;